createdAt,value
2024-05-09T00:00:18.612Z,71.73535
2024-05-09T00:01:15.303Z,71.31152
2024-05-09T00:02:13.814Z,71.31152
2024-05-09T00:03:13.867Z,71.31152
2024-05-09T00:04:13.750Z,71.31152
2024-05-09T00:05:13.859Z,71.37402
2024-05-09T00:06:13.802Z,71.37402
2024-05-09T00:07:13.745Z,71.38379
2024-05-09T00:08:13.800Z,71.38379
2024-05-09T00:09:13.740Z,71.67578
2024-05-09T00:10:24.998Z,71.67578
2024-05-09T00:11:15.441Z,71.76172
2024-05-09T00:12:13.864Z,71.76172
2024-05-09T00:13:13.760Z,71.85352
2024-05-09T00:14:13.837Z,71.85352
2024-05-09T00:15:13.750Z,71.99609
2024-05-09T00:16:13.744Z,71.99609
2024-05-09T00:17:13.857Z,72.1748
2024-05-09T00:18:13.909Z,72.1748
2024-05-09T00:19:13.957Z,72.63379
2024-05-09T00:20:20.242Z,72.63379
2024-05-09T00:21:15.375Z,72.57715
2024-05-09T00:22:13.742Z,72.57715
2024-05-09T00:23:14.187Z,72.57715
2024-05-09T00:24:13.761Z,72.57715
2024-05-09T00:25:13.755Z,73.05859
2024-05-09T00:26:13.870Z,73.05859
2024-05-09T00:27:13.741Z,73.54297
2024-05-09T00:28:13.757Z,73.54297
2024-05-09T00:29:13.834Z,73.47852
2024-05-09T00:30:21.034Z,73.47852
2024-05-09T00:31:15.510Z,73.52734
2024-05-09T00:32:13.981Z,73.52734
2024-05-09T00:33:14.003Z,73.53418
2024-05-09T00:34:13.997Z,73.53418
2024-05-09T00:35:13.847Z,73.56934
2024-05-09T00:36:13.754Z,73.56934
2024-05-09T00:37:13.750Z,73.78027
2024-05-09T00:38:13.790Z,73.78027
2024-05-09T00:39:13.758Z,73.91895
2024-05-09T00:40:22.436Z,73.91895
2024-05-09T00:41:18.929Z,74.26758
2024-05-09T00:42:15.163Z,74.26758
2024-05-09T00:43:14.845Z,74.10742
2024-05-09T00:44:13.780Z,74.10742
2024-05-09T00:45:13.745Z,74.21191
2024-05-09T00:46:13.759Z,74.21191
2024-05-09T00:47:13.853Z,74.09668
2024-05-09T00:48:16.428Z,74.09668
2024-05-09T00:49:15.596Z,74.09668
2024-05-09T00:50:19.283Z,74.09668
2024-05-09T00:51:15.266Z,74.95215
2024-05-09T00:52:13.761Z,74.95215
2024-05-09T00:53:13.810Z,74.95801
2024-05-09T00:54:13.755Z,74.95801
2024-05-09T00:55:13.754Z,74.9541
2024-05-09T00:56:13.786Z,74.9541
2024-05-09T00:57:13.749Z,75.42285
2024-05-09T00:58:13.760Z,75.42285
2024-05-09T00:59:13.778Z,75.61426
2024-05-09T01:00:22.618Z,75.61426
2024-05-09T01:01:15.383Z,75.68848
2024-05-09T01:02:13.928Z,75.68848
2024-05-09T01:03:14.540Z,75.56934
2024-05-09T01:04:13.819Z,75.56934
2024-05-09T01:05:13.820Z,75.63379
2024-05-09T01:06:13.770Z,75.63379
2024-05-09T01:07:13.766Z,75.84277
2024-05-09T01:08:13.920Z,75.84277
2024-05-09T01:09:13.755Z,75.95898
2024-05-09T01:10:20.920Z,75.95898
2024-05-09T01:11:15.350Z,76.25684
2024-05-09T01:12:14.030Z,76.25684
2024-05-09T01:13:13.803Z,76.55566
2024-05-09T01:14:13.900Z,76.55566
2024-05-09T01:15:13.762Z,76.85352
2024-05-09T01:16:13.755Z,76.85352
2024-05-09T01:17:13.875Z,76.96875
2024-05-09T01:18:14.248Z,76.96875
2024-05-09T01:19:13.869Z,77.14063
2024-05-09T01:20:20.109Z,77.14063
2024-05-09T01:21:15.666Z,77.40137
2024-05-09T01:22:13.759Z,77.40137
2024-05-09T01:23:15.640Z,77.26367
2024-05-09T01:24:13.757Z,77.26367
2024-05-09T01:25:13.781Z,77.26367
2024-05-09T01:26:13.824Z,77.26367
2024-05-09T01:27:13.762Z,77.54004
2024-05-09T01:28:13.769Z,77.54004
2024-05-09T01:29:13.812Z,77.61133
2024-05-09T01:31:13.765Z,77.48535
2024-05-09T01:32:13.842Z,77.48535
2024-05-09T01:33:14.248Z,77.5332
2024-05-09T01:34:13.846Z,77.5332
2024-05-09T01:35:13.802Z,77.46289
2024-05-09T01:36:13.765Z,77.46289
2024-05-09T01:37:13.758Z,77.53906
2024-05-09T01:38:14.309Z,77.53906
2024-05-09T01:39:13.759Z,77.51953
2024-05-09T01:41:13.920Z,77.45508
2024-05-09T01:42:13.807Z,77.45508
2024-05-09T01:43:13.761Z,77.88086
2024-05-09T01:44:13.890Z,77.88086
2024-05-09T01:45:13.765Z,78.04102
2024-05-09T01:46:13.764Z,78.04102
2024-05-09T01:47:13.892Z,78.14258
2024-05-09T01:48:13.896Z,78.14258
2024-05-09T01:49:13.946Z,78.33496
2024-05-09T01:51:13.825Z,77.95508
2024-05-09T01:52:13.766Z,77.95508
2024-05-09T01:53:14.565Z,77.81543
2024-05-09T01:54:13.775Z,77.81543
2024-05-09T01:55:13.770Z,77.61816
2024-05-09T01:56:13.906Z,77.61816
2024-05-09T01:57:13.768Z,77.55762
2024-05-09T01:58:13.771Z,77.55762
2024-05-09T01:59:13.807Z,77.67871
2024-05-09T02:01:13.823Z,77.625
2024-05-09T02:02:13.876Z,77.625
2024-05-09T02:03:16.490Z,78.10254
2024-05-09T02:04:15.627Z,78.10254
2024-05-09T02:05:13.809Z,77.9209
2024-05-09T02:06:13.803Z,77.9209
2024-05-09T02:07:13.768Z,77.70215
2024-05-09T02:08:13.846Z,77.70215
2024-05-09T02:09:13.771Z,77.29492
2024-05-09T02:10:20.306Z,77.29492
2024-05-09T02:11:15.594Z,77.20313
2024-05-09T02:12:13.915Z,77.20313
2024-05-09T02:13:13.781Z,77.70215
2024-05-09T02:14:13.812Z,77.70215
2024-05-09T02:15:13.775Z,77.81348
2024-05-09T02:16:13.774Z,77.81348
2024-05-09T02:17:13.922Z,77.65332
2024-05-09T02:18:14.317Z,77.65332
2024-05-09T02:19:13.910Z,77.58691
2024-05-09T02:20:22.416Z,77.58691
2024-05-09T02:21:15.295Z,77.67871
2024-05-09T02:22:13.778Z,77.67871
2024-05-09T02:23:13.929Z,77.62305
2024-05-09T02:24:13.781Z,77.62305
2024-05-09T02:25:13.779Z,77.60156
2024-05-09T02:26:13.809Z,77.60156
2024-05-09T02:27:13.789Z,77.61719
2024-05-09T02:28:13.782Z,77.61719
2024-05-09T02:29:13.835Z,77.6084
2024-05-09T02:30:22.399Z,77.6084
2024-05-09T02:31:15.634Z,77.08789
2024-05-09T02:32:13.991Z,77.08789
2024-05-09T02:33:14.670Z,77.08789
2024-05-09T02:34:13.870Z,77.08789
2024-05-09T02:35:13.813Z,77.48047
2024-05-09T02:36:13.817Z,77.48047
2024-05-09T02:37:13.780Z,77.46777
2024-05-09T02:38:13.931Z,77.46777
2024-05-09T02:39:13.792Z,77.19434
2024-05-09T02:40:15.116Z,77.19434
2024-05-09T02:41:15.515Z,77.01172
2024-05-09T02:42:13.785Z,77.01172
2024-05-09T02:43:13.806Z,77.19531
2024-05-09T02:44:13.818Z,77.19531
2024-05-09T02:45:13.781Z,77.2168
2024-05-09T02:46:13.820Z,77.2168
2024-05-09T02:47:13.892Z,77.17871
2024-05-09T02:48:14.451Z,77.17871
2024-05-09T02:49:13.910Z,76.89258
2024-05-09T02:50:19.242Z,76.89258
2024-05-09T02:51:15.311Z,76.75879
2024-05-09T02:52:13.787Z,76.75879
2024-05-09T02:53:14.475Z,76.61914
2024-05-09T02:54:13.799Z,76.61914
2024-05-09T02:55:13.784Z,76.55176
2024-05-09T02:56:13.864Z,76.55176
2024-05-09T02:57:13.784Z,76.53418
2024-05-09T02:58:13.791Z,76.53418
2024-05-09T02:59:13.818Z,75.94531
2024-05-09T03:00:19.068Z,75.94531
2024-05-09T03:01:15.284Z,75.65234
2024-05-09T03:02:13.971Z,75.65234
2024-05-09T03:03:15.507Z,75.38379
2024-05-09T03:04:13.798Z,75.38379
2024-05-09T03:05:13.808Z,75.08887
2024-05-09T03:06:13.789Z,75.08887
2024-05-09T03:07:13.793Z,75.34961
2024-05-09T03:08:14.010Z,75.34961
2024-05-09T03:09:13.790Z,75.34863
2024-05-09T03:10:21.922Z,75.34863
2024-05-09T03:11:15.607Z,75.02051
2024-05-09T03:12:13.917Z,75.02051
2024-05-09T03:13:15.268Z,74.89844
2024-05-09T03:14:13.892Z,74.89844
2024-05-09T03:15:13.786Z,74.86035
2024-05-09T03:16:13.800Z,74.86035
2024-05-09T03:17:13.834Z,73.85449
2024-05-09T03:18:14.155Z,73.85449
2024-05-09T03:19:13.968Z,73.14453
2024-05-09T03:20:20.570Z,73.14453
2024-05-09T03:21:15.438Z,72.77441
2024-05-09T03:22:13.794Z,72.77441
2024-05-09T03:23:13.930Z,72.77441
2024-05-09T03:24:13.795Z,72.77441
2024-05-09T03:25:13.793Z,72.62207
2024-05-09T03:26:13.867Z,72.62207
2024-05-09T03:27:13.810Z,72.01367
2024-05-09T03:28:13.813Z,72.01367
2024-05-09T03:29:13.808Z,72.12109
2024-05-09T03:30:26.008Z,72.12109
2024-05-09T03:31:15.243Z,72.17773
2024-05-09T03:32:13.871Z,72.17773
2024-05-09T03:33:14.981Z,72.06152
2024-05-09T03:34:13.911Z,72.06152
2024-05-09T03:35:13.819Z,71.80371
2024-05-09T03:36:13.807Z,71.80371
2024-05-09T03:37:13.803Z,69.36035
2024-05-09T03:38:13.942Z,69.36035
2024-05-09T03:39:13.795Z,68.13477
2024-05-09T03:40:20.412Z,68.13477
2024-05-09T03:41:15.589Z,67.23145
2024-05-09T03:42:13.805Z,67.23145
2024-05-09T03:43:13.818Z,65.64551
2024-05-09T03:44:13.825Z,65.64551
2024-05-09T03:45:13.802Z,65.625
2024-05-09T03:46:13.810Z,65.625
2024-05-09T03:47:13.836Z,65.75879
2024-05-09T03:48:14.071Z,65.75879
2024-05-09T03:49:14.017Z,64.2832
2024-05-09T03:50:21.992Z,64.2832
2024-05-09T03:51:15.602Z,65.05957
2024-05-09T03:52:13.812Z,65.05957
2024-05-09T03:53:14.184Z,65.97852
2024-05-09T03:54:13.810Z,65.97852
2024-05-09T03:55:13.800Z,64.76855
2024-05-09T03:56:13.840Z,64.76855
2024-05-09T03:57:13.801Z,63.74805
2024-05-09T03:58:13.808Z,63.74805
2024-05-09T03:59:13.844Z,62.43652
2024-05-09T04:00:18.285Z,62.43652
2024-05-09T04:01:15.370Z,61.81445
2024-05-09T04:02:13.930Z,61.81445
2024-05-09T04:03:13.964Z,62.27734
2024-05-09T04:04:13.953Z,62.27734
2024-05-09T04:05:13.916Z,62.01074
2024-05-09T04:06:13.807Z,62.01074
2024-05-09T04:07:13.804Z,61.07031
2024-05-09T04:08:13.901Z,61.07031
2024-05-09T04:09:13.809Z,61.88672
2024-05-09T04:10:23.654Z,61.88672
2024-05-09T04:11:15.606Z,63.68945
2024-05-09T04:12:13.980Z,63.68945
2024-05-09T04:13:13.847Z,66.62305
2024-05-09T04:14:13.931Z,66.62305
2024-05-09T04:15:13.822Z,67.14453
2024-05-09T04:16:13.827Z,67.14453
2024-05-09T04:17:13.847Z,66.78125
2024-05-09T04:18:13.958Z,66.78125
2024-05-09T04:19:13.943Z,66.63086
2024-05-09T04:21:13.888Z,66.63086
2024-05-09T04:22:13.822Z,66.63086
2024-05-09T04:23:14.493Z,66.65137
2024-05-09T04:24:13.822Z,66.65137
2024-05-09T04:25:13.812Z,65.63867
2024-05-09T04:26:13.903Z,65.63867
2024-05-09T04:27:13.814Z,64.25488
2024-05-09T04:28:13.813Z,64.25488
2024-05-09T04:29:13.871Z,63.69629
2024-05-09T04:31:13.817Z,63.48535
2024-05-09T04:32:13.885Z,63.48535
2024-05-09T04:33:14.797Z,61.75391
2024-05-09T04:34:13.924Z,61.75391
2024-05-09T04:35:13.854Z,59.29492
2024-05-09T04:36:13.818Z,59.29492
2024-05-09T04:37:13.819Z,59.27051
2024-05-09T04:38:14.739Z,59.27051
2024-05-09T04:39:13.816Z,60.94043
2024-05-09T04:41:13.929Z,60.94043
2024-05-09T04:42:13.816Z,60.94043
2024-05-09T04:43:13.886Z,60.29102
2024-05-09T04:44:13.853Z,60.29102
2024-05-09T04:45:13.816Z,61.41992
2024-05-09T04:46:13.823Z,61.41992
2024-05-09T04:47:14.075Z,61.03418
2024-05-09T04:48:14.031Z,61.03418
2024-05-09T04:49:13.945Z,59.65137
2024-05-09T04:50:20.846Z,59.65137
2024-05-09T04:51:15.388Z,58.49707
2024-05-09T04:52:13.828Z,58.49707
2024-05-09T04:53:13.846Z,58.06836
2024-05-09T04:55:13.826Z,59.23438
2024-05-09T04:56:13.878Z,59.23438
2024-05-09T04:57:13.829Z,58.96191
2024-05-09T04:58:13.846Z,58.96191
2024-05-09T04:59:13.857Z,57.80664
2024-05-09T05:00:15.030Z,57.80664
2024-05-09T05:01:15.514Z,56.61035
2024-05-09T05:02:13.895Z,56.61035
2024-05-09T05:03:15.793Z,56.01367
2024-05-09T05:04:13.923Z,56.01367
2024-05-09T05:05:13.882Z,56.01367
2024-05-09T05:06:13.874Z,56.01367
2024-05-09T05:07:13.830Z,56.21094
2024-05-09T05:08:14.275Z,56.21094
2024-05-09T05:09:13.835Z,55.41992
2024-05-09T05:10:21.106Z,55.41992
2024-05-09T05:11:15.583Z,54.74414
2024-05-09T05:12:13.946Z,54.74414
2024-05-09T05:13:13.834Z,55.32324
2024-05-09T05:14:13.903Z,55.32324
2024-05-09T05:15:13.837Z,55.44824
2024-05-09T05:16:13.835Z,55.44824
2024-05-09T05:17:13.848Z,55.9834
2024-05-09T05:18:13.942Z,55.9834
2024-05-09T05:19:16.952Z,57.51367
2024-05-09T05:20:24.375Z,57.51367
2024-05-09T05:21:15.387Z,58.17676
2024-05-09T05:22:13.838Z,58.17676
2024-05-09T05:23:14.247Z,59.4375
2024-05-09T05:24:13.843Z,59.4375
2024-05-09T05:25:13.834Z,59.24512
2024-05-09T05:26:13.879Z,59.24512
2024-05-09T05:27:13.839Z,55.28613
2024-05-09T05:28:13.836Z,55.28613
2024-05-09T05:29:14.385Z,55.77832
2024-05-09T05:30:21.135Z,55.77832
2024-05-09T05:31:15.566Z,55.44336
2024-05-09T05:32:14.142Z,55.44336
2024-05-09T05:33:14.125Z,55.03418
2024-05-09T05:34:13.929Z,55.03418
2024-05-09T05:35:13.990Z,55.39941
2024-05-09T05:36:13.848Z,55.39941
2024-05-09T05:37:13.842Z,55.68164
2024-05-09T05:38:13.893Z,55.68164
2024-05-09T05:39:13.846Z,55.03125
2024-05-09T05:40:24.616Z,55.03125
2024-05-09T05:41:15.587Z,53.51953
2024-05-09T05:42:13.846Z,53.51953
2024-05-09T05:43:13.843Z,52.61035
2024-05-09T05:44:13.884Z,52.61035
2024-05-09T05:45:13.860Z,53.27441
2024-05-09T05:46:13.850Z,53.27441
2024-05-09T05:47:13.986Z,54.62793
2024-05-09T05:48:14.130Z,54.62793
2024-05-09T05:49:14.182Z,56.24902
2024-05-09T05:50:20.987Z,56.24902
2024-05-09T05:51:15.648Z,56.63867
2024-05-09T05:52:13.852Z,56.63867
2024-05-09T05:53:14.021Z,57.04883
2024-05-09T05:54:13.851Z,57.04883
2024-05-09T05:55:13.849Z,56.65918
2024-05-09T05:56:13.859Z,56.65918
2024-05-09T05:57:13.847Z,56.82617
2024-05-09T05:58:13.857Z,56.82617
2024-05-09T05:59:15.511Z,57.04297
2024-05-09T06:00:21.578Z,57.04297
2024-05-09T06:01:15.716Z,56.24805
2024-05-09T06:02:14.028Z,56.24805
2024-05-09T06:03:14.451Z,55.36426
2024-05-09T06:04:13.914Z,55.36426
2024-05-09T06:05:14.064Z,55.0166
2024-05-09T06:06:13.890Z,55.0166
2024-05-09T06:07:13.861Z,54.58594
2024-05-09T06:08:14.100Z,54.58594
2024-05-09T06:09:13.852Z,54.92383
2024-05-09T06:10:21.023Z,54.92383
2024-05-09T06:11:15.693Z,56.33594
2024-05-09T06:12:13.961Z,56.33594
2024-05-09T06:13:14.550Z,56.33594
2024-05-09T06:14:14.015Z,56.33594
2024-05-09T06:15:13.851Z,56.69531
2024-05-09T06:16:13.863Z,56.69531
2024-05-09T06:17:13.986Z,58.74414
2024-05-09T06:18:14.350Z,58.74414
2024-05-09T06:19:14.140Z,60.22559
2024-05-09T06:20:20.539Z,60.22559
2024-05-09T06:21:15.629Z,61.64746
2024-05-09T06:22:13.856Z,61.64746
2024-05-09T06:23:14.244Z,62.85156
2024-05-09T06:24:13.891Z,62.85156
2024-05-09T06:25:13.925Z,60.375
2024-05-09T06:26:13.908Z,60.375
2024-05-09T06:27:13.919Z,59.35645
2024-05-09T06:28:13.954Z,59.35645
2024-05-09T06:29:13.943Z,58.35645
2024-05-09T06:30:24.925Z,58.35645
2024-05-09T06:31:15.609Z,56.19531
2024-05-09T06:32:14.123Z,56.19531
2024-05-09T06:33:15.956Z,55.06348
2024-05-09T06:34:13.945Z,55.06348
2024-05-09T06:35:14.059Z,56.02441
2024-05-09T06:36:13.926Z,56.02441
2024-05-09T06:37:13.955Z,57.47461
2024-05-09T06:38:13.950Z,57.47461
2024-05-09T06:39:13.871Z,56.33203
2024-05-09T06:40:17.463Z,56.33203
2024-05-09T06:41:15.526Z,55.02539
2024-05-09T06:42:13.978Z,55.02539
2024-05-09T06:43:14.475Z,53.17188
2024-05-09T06:44:13.904Z,53.17188
2024-05-09T06:45:13.870Z,53.80664
2024-05-09T06:46:13.872Z,53.80664
2024-05-09T06:47:14.043Z,57.24414
2024-05-09T06:48:14.181Z,57.24414
2024-05-09T06:49:14.172Z,57.04395
2024-05-09T06:50:22.923Z,57.04395
2024-05-09T06:51:15.867Z,56.64551
2024-05-09T06:52:13.872Z,56.64551
2024-05-09T06:53:13.931Z,56.96973
2024-05-09T06:54:13.881Z,56.96973
2024-05-09T06:55:13.867Z,55.72949
2024-05-09T06:56:13.920Z,55.72949
2024-05-09T06:57:13.870Z,52.53223
2024-05-09T06:58:13.883Z,52.53223
2024-05-09T06:59:13.913Z,54.06152
2024-05-09T07:00:22.689Z,54.06152
2024-05-09T07:01:15.763Z,53.94629
2024-05-09T07:02:13.992Z,53.94629
2024-05-09T07:03:16.481Z,53.4834
2024-05-09T07:04:15.540Z,53.4834
2024-05-09T07:05:13.971Z,53.21484
2024-05-09T07:06:13.934Z,53.21484
2024-05-09T07:07:13.887Z,53.0127
2024-05-09T07:08:14.209Z,53.0127
2024-05-09T07:09:13.893Z,56.50098
2024-05-09T07:10:21.700Z,56.50098
2024-05-09T07:11:15.557Z,57.15918
2024-05-09T07:12:14.090Z,57.15918
2024-05-09T07:13:14.487Z,57.17188
2024-05-09T07:14:13.935Z,57.17188
2024-05-09T07:15:13.896Z,57.51953
2024-05-09T07:16:13.901Z,57.51953
2024-05-09T07:17:14.057Z,56.97461
2024-05-09T07:18:14.329Z,56.97461
2024-05-09T07:19:14.047Z,53.89746
2024-05-09T07:21:14.030Z,50.82129
2024-05-09T07:22:13.890Z,50.82129
2024-05-09T07:23:14.079Z,50.5332
2024-05-09T07:24:13.890Z,50.5332
2024-05-09T07:25:13.899Z,49.69922
2024-05-09T07:26:13.941Z,49.69922
2024-05-09T07:27:13.885Z,48.23145
2024-05-09T07:28:13.912Z,48.23145
2024-05-09T07:29:13.931Z,47.33301
2024-05-09T07:30:20.071Z,47.33301
2024-05-09T07:31:15.421Z,45.89844
2024-05-09T07:32:13.984Z,45.89844
2024-05-09T07:33:14.019Z,46.20801
2024-05-09T07:34:14.115Z,46.20801
2024-05-09T07:35:13.967Z,47.09082
2024-05-09T07:36:13.899Z,47.09082
2024-05-09T07:37:13.907Z,47.3252
2024-05-09T07:38:14.012Z,47.3252
2024-05-09T07:39:13.921Z,46.58984
2024-05-09T07:40:24.110Z,46.58984
2024-05-09T07:41:15.479Z,49.2832
2024-05-09T07:42:13.907Z,49.2832
2024-05-09T07:43:13.997Z,55.47559
2024-05-09T07:44:13.941Z,55.47559
2024-05-09T07:45:29.916Z,61.88379
2024-05-09T07:50:55.817Z,70.60645
2024-05-09T07:53:38.364Z,71.86523
2024-05-09T07:54:19.109Z,71.86523
2024-05-09T07:55:17.524Z,71.49805
2024-05-09T07:56:18.293Z,71.49805
2024-05-09T07:57:17.466Z,70.32227
2024-05-09T07:58:17.353Z,70.32227
2024-05-09T07:59:17.353Z,70.86719
2024-05-09T08:00:23.554Z,70.86719
2024-05-09T08:01:19.187Z,71.44141
2024-05-09T08:02:17.492Z,71.44141
2024-05-09T08:03:17.457Z,73.50195
2024-05-09T08:04:17.439Z,73.50195
2024-05-09T08:05:17.464Z,75.16895
2024-05-09T08:06:17.357Z,75.16895
2024-05-09T08:07:17.406Z,75.68652
2024-05-09T08:08:17.359Z,75.68652
2024-05-09T08:09:21.090Z,75.66797
2024-05-09T08:10:24.436Z,75.66797
2024-05-09T08:11:18.801Z,73.12207
2024-05-09T08:12:17.369Z,73.12207
2024-05-09T08:13:17.443Z,74.04199
2024-05-09T08:14:17.363Z,74.04199
2024-05-09T08:15:17.370Z,75.03223
2024-05-09T08:16:17.424Z,75.03223
2024-05-09T08:17:17.435Z,75.92969
2024-05-09T08:18:17.637Z,75.92969
2024-05-09T08:19:17.431Z,75.78809
2024-05-09T08:20:26.609Z,75.78809
2024-05-09T08:21:19.180Z,76.80957
2024-05-09T08:22:17.377Z,76.80957
2024-05-09T08:23:17.364Z,78.91797
2024-05-09T08:24:17.378Z,78.91797
2024-05-09T08:25:17.541Z,78.95508
2024-05-09T08:26:17.397Z,78.95508
2024-05-09T08:27:17.370Z,78.20215
2024-05-09T08:28:17.512Z,78.20215
2024-05-09T08:29:17.383Z,77.61133
2024-05-09T08:30:24.704Z,77.61133
2024-05-09T08:31:19.153Z,78.40723
2024-05-09T08:32:17.410Z,78.40723
2024-05-09T08:33:17.471Z,78.32813
2024-05-09T08:34:17.553Z,78.32813
2024-05-09T08:35:17.366Z,79.10059
2024-05-09T08:36:17.368Z,79.10059
2024-05-09T08:37:22.387Z,79.50195
2024-05-09T08:38:19.186Z,79.50195
2024-05-09T08:39:17.376Z,79.93359
2024-05-09T08:40:24.076Z,79.93359
2024-05-09T08:41:18.745Z,81.37207
2024-05-09T08:42:17.384Z,81.37207
2024-05-09T08:43:17.449Z,82.1123
2024-05-09T08:44:17.389Z,82.1123
2024-05-09T08:45:17.391Z,82.48047
2024-05-09T08:46:17.522Z,82.48047
2024-05-09T08:47:17.418Z,83.73047
2024-05-09T08:48:17.474Z,83.73047
2024-05-09T08:49:17.431Z,84.13477
2024-05-09T08:50:28.732Z,84.13477
2024-05-09T08:51:19.378Z,83.58008
2024-05-09T08:52:17.389Z,83.58008
2024-05-09T08:53:17.383Z,83.3457
2024-05-09T08:54:17.372Z,83.3457
2024-05-09T08:55:17.394Z,81.52637
2024-05-09T08:56:17.385Z,81.52637
2024-05-09T08:57:17.393Z,80.18164
2024-05-09T08:58:17.579Z,80.18164
2024-05-09T08:59:17.386Z,77.75098
2024-05-09T09:00:25.434Z,77.75098
2024-05-09T09:01:19.146Z,77.37012
2024-05-09T09:02:17.579Z,77.37012
2024-05-09T09:03:17.540Z,75.9668
2024-05-09T09:04:17.543Z,75.9668
2024-05-09T09:05:17.527Z,75.26855
2024-05-09T09:06:17.391Z,75.26855
2024-05-09T09:07:17.441Z,73.34668
2024-05-09T09:08:17.389Z,73.34668
2024-05-09T09:09:17.384Z,71.54883
2024-05-09T09:10:25.403Z,71.54883
2024-05-09T09:11:19.022Z,69.98633
2024-05-09T09:12:17.383Z,69.98633
2024-05-09T09:13:17.521Z,67.9082
2024-05-09T09:14:17.386Z,67.9082
2024-05-09T09:15:17.382Z,64.79199
2024-05-09T09:16:17.583Z,64.79199
2024-05-09T09:17:17.448Z,60.04102
2024-05-09T09:18:17.648Z,60.04102
2024-05-09T09:19:17.475Z,59.13965
2024-05-09T09:20:23.244Z,59.13965
2024-05-09T09:21:18.968Z,59.77148
2024-05-09T09:22:17.441Z,59.77148
2024-05-09T09:23:17.395Z,60.25488
2024-05-09T09:24:17.386Z,60.25488
2024-05-09T09:25:17.488Z,59.12891
2024-05-09T09:26:17.390Z,59.12891
2024-05-09T09:27:17.389Z,57.47949
2024-05-09T09:28:17.651Z,57.47949
2024-05-09T09:29:17.388Z,58.40137
2024-05-09T09:30:31.400Z,58.40137
2024-05-09T09:31:19.072Z,59.59375
2024-05-09T09:32:17.427Z,59.59375
2024-05-09T09:33:17.460Z,58.80273
2024-05-09T09:34:17.726Z,58.80273
2024-05-09T09:35:17.397Z,58.01172
2024-05-09T09:36:17.397Z,58.01172
2024-05-09T09:37:17.433Z,57.55371
2024-05-09T09:38:17.391Z,57.55371
2024-05-09T09:39:17.404Z,55.90625
2024-05-09T09:40:18.449Z,55.90625
2024-05-09T09:41:17.396Z,56.10352
2024-05-09T09:42:17.398Z,56.10352
2024-05-09T09:43:17.485Z,58.39844
2024-05-09T09:44:17.400Z,58.39844
2024-05-09T09:45:17.446Z,58.83105
2024-05-09T09:46:17.411Z,58.83105
2024-05-09T09:47:17.438Z,58.83105
2024-05-09T09:48:17.517Z,58.83105
2024-05-09T09:49:17.523Z,57.07324
2024-05-09T09:50:23.892Z,57.07324
2024-05-09T09:51:18.975Z,58.6543
2024-05-09T09:52:17.463Z,58.6543
2024-05-09T09:53:17.396Z,59.89258
2024-05-09T09:54:17.398Z,59.89258
2024-05-09T09:55:17.494Z,61.33301
2024-05-09T09:56:17.399Z,61.33301
2024-05-09T09:57:17.406Z,66.04199
2024-05-09T09:58:17.772Z,66.04199
2024-05-09T09:59:17.416Z,72.58105
2024-05-09T10:00:24.140Z,72.58105
2024-05-09T10:01:19.267Z,76.6543
2024-05-09T10:02:17.527Z,76.6543
2024-05-09T10:03:17.463Z,81.1709
2024-05-09T10:04:17.503Z,81.1709
2024-05-09T10:05:17.439Z,83.48047
2024-05-09T10:06:17.416Z,83.48047
2024-05-09T10:07:17.435Z,84.13184
2024-05-09T10:08:17.423Z,84.13184
2024-05-09T10:09:17.416Z,84.00391
2024-05-09T10:10:23.109Z,84.00391
2024-05-09T10:11:19.082Z,83.90332
2024-05-09T10:12:17.468Z,83.90332
2024-05-09T10:13:17.440Z,85.10254
2024-05-09T10:14:17.415Z,85.10254
2024-05-09T10:15:17.408Z,85.48828
2024-05-09T10:16:17.535Z,85.48828
2024-05-09T10:17:17.452Z,85.01563
2024-05-09T10:18:17.561Z,85.01563
2024-05-09T10:19:17.496Z,84.59082
2024-05-09T10:20:21.789Z,84.59082
2024-05-09T10:21:18.993Z,84.39453
2024-05-09T10:22:17.588Z,84.39453
2024-05-09T10:23:17.417Z,84.21289
2024-05-09T10:24:17.415Z,84.21289
2024-05-09T10:25:17.600Z,84.08789
2024-05-09T10:26:17.420Z,84.08789
2024-05-09T10:27:17.429Z,83.94434
2024-05-09T10:28:17.453Z,83.94434
2024-05-09T10:29:17.420Z,84.84961
2024-05-09T10:30:25.448Z,84.84961
2024-05-09T10:31:19.156Z,85.32715
2024-05-09T10:32:17.464Z,85.32715
2024-05-09T10:33:17.498Z,85.16895
2024-05-09T10:34:17.614Z,85.16895
2024-05-09T10:35:17.424Z,85.69824
2024-05-09T10:36:17.416Z,85.69824
2024-05-09T10:37:17.454Z,85.54785
2024-05-09T10:38:17.422Z,85.54785
2024-05-09T10:39:17.415Z,84.63184
2024-05-09T10:40:25.737Z,84.63184
2024-05-09T10:41:19.140Z,82.2666
2024-05-09T10:42:17.418Z,82.2666
2024-05-09T10:43:17.532Z,81.48145
2024-05-09T10:44:17.424Z,81.48145
2024-05-09T10:45:17.486Z,80.84961
2024-05-09T10:46:17.482Z,80.84961
2024-05-09T10:47:17.431Z,79.74414
2024-05-09T10:48:17.495Z,79.74414
2024-05-09T10:49:17.616Z,78.80957
2024-05-09T10:50:25.066Z,78.80957
2024-05-09T10:51:19.350Z,77.90918
2024-05-09T10:52:17.568Z,77.90918
2024-05-09T10:53:17.423Z,77.61621
2024-05-09T10:54:17.432Z,77.61621
2024-05-09T10:55:17.596Z,76.99023
2024-05-09T10:56:17.678Z,76.99023
2024-05-09T10:57:17.422Z,72.32422
2024-05-09T10:58:17.597Z,72.32422
2024-05-09T10:59:17.423Z,71.51953
2024-05-09T11:00:27.183Z,71.51953
2024-05-09T11:01:19.111Z,71.16797
2024-05-09T11:02:17.558Z,71.16797
2024-05-09T11:03:17.535Z,70.37305
2024-05-09T11:04:17.597Z,70.37305
2024-05-09T11:05:17.666Z,70.20605
2024-05-09T11:06:17.436Z,70.20605
2024-05-09T11:07:17.520Z,69.7373
2024-05-09T11:08:17.434Z,69.7373
2024-05-09T11:09:17.429Z,68.26074
2024-05-09T11:10:24.481Z,68.26074
2024-05-09T11:11:19.065Z,67.07715
2024-05-09T11:12:17.974Z,67.07715
2024-05-09T11:13:17.470Z,67.40918
2024-05-09T11:14:17.444Z,67.40918
2024-05-09T11:15:17.532Z,66.71289
2024-05-09T11:16:17.674Z,66.71289
2024-05-09T11:17:17.481Z,64.98633
2024-05-09T11:18:18.436Z,64.98633
2024-05-09T11:19:17.626Z,65.96484
2024-05-09T11:20:26.410Z,65.96484
2024-05-09T11:21:19.245Z,66.22754
2024-05-09T11:22:17.487Z,66.22754
2024-05-09T11:23:17.434Z,67.58691
2024-05-09T11:24:17.438Z,67.58691
2024-05-09T11:25:17.555Z,68.9248
2024-05-09T11:26:17.439Z,68.9248
2024-05-09T11:27:17.460Z,67.75781
2024-05-09T11:28:17.630Z,67.75781
2024-05-09T11:29:19.443Z,65.45117
2024-05-09T11:30:24.239Z,65.45117
2024-05-09T11:31:19.170Z,63.48535
2024-05-09T11:32:17.479Z,63.48535
2024-05-09T11:33:17.572Z,62.85938
2024-05-09T11:34:17.514Z,62.85938
2024-05-09T11:35:17.583Z,61.82324
2024-05-09T11:36:17.446Z,61.82324
2024-05-09T11:37:17.747Z,61.08398
2024-05-09T11:38:17.452Z,61.08398
2024-05-09T11:39:17.446Z,60.29688
2024-05-09T11:40:25.117Z,60.29688
2024-05-09T11:41:19.232Z,59.15918
2024-05-09T11:42:17.455Z,59.15918
2024-05-09T11:43:17.584Z,59.22852
2024-05-09T11:44:17.448Z,59.22852
2024-05-09T11:45:17.595Z,58.81348
2024-05-09T11:46:17.585Z,58.81348
2024-05-09T11:47:17.485Z,55.94434
2024-05-09T11:48:17.549Z,55.94434
2024-05-09T11:49:17.669Z,54.04785
2024-05-09T11:50:26.608Z,54.04785
2024-05-09T11:51:18.829Z,53.2041
2024-05-09T11:52:17.579Z,53.2041
2024-05-09T11:53:17.447Z,51.68555
2024-05-09T11:54:17.454Z,51.68555
2024-05-09T11:55:17.621Z,49.40723
2024-05-09T11:56:17.501Z,49.40723
2024-05-09T11:57:17.473Z,49.08105
2024-05-09T11:58:18.342Z,49.08105
2024-05-09T11:59:17.523Z,49.73926
2024-05-09T12:00:25.157Z,49.73926
2024-05-09T12:01:19.181Z,52.5957